AVA8546 SKRG-SKBQ
Flight info
| Callsign | AVA8546 |
|---|---|
| Flight time | 0h 47m |
| Altitude | 34000 |
| Route | BIVIG1B BIVIG UW3 VOVLU VOVLU4A |
| Aircraft | A320/M-SDE3FGHIRWY/LB1 |
Departure
| Time | 2026-05-07 10:17 |
|---|---|
| Airport | Jose Maria Córdova International Airport (SKRG) |
Arrival
| Time | 2026-05-07 11:04 |
|---|---|
| Airport | Ernesto Cortissoz International Airport (SKBQ) |
| Time | Latitude | Longitude | Altitude | Speed | Heading |
|---|---|---|---|---|---|
| 2026-05-07 09:13 | 6.16970 | -75.42799 | 7016 ft | 0 kts | 340° |
| 2026-05-07 10:00 | 6.16968 | -75.42798 | 7021 ft | 2 kts | 340° |
| 2026-05-07 10:00 | 6.16950 | -75.42791 | 7021 ft | 3 kts | 347° |
| 2026-05-07 10:01 | 6.16929 | -75.42791 | 7016 ft | 3 kts | 33° |
| 2026-05-07 10:01 | 6.16916 | -75.42807 | 7020 ft | 3 kts | 75° |
| 2026-05-07 10:01 | 6.16915 | -75.42810 | 7016 ft | 0 kts | 76° |
| 2026-05-07 10:05 | 6.16915 | -75.42809 | 7016 ft | 0 kts | 76° |
| 2026-05-07 10:05 | 6.16921 | -75.42790 | 7018 ft | 6 kts | 72° |
| 2026-05-07 10:06 | 6.16940 | -75.42748 | 7020 ft | 7 kts | 62° |
| 2026-05-07 10:06 | 6.16973 | -75.42706 | 7019 ft | 8 kts | 45° |
| 2026-05-07 10:06 | 6.17021 | -75.42665 | 7016 ft | 10 kts | 38° |
| 2026-05-07 10:06 | 6.17047 | -75.42604 | 7020 ft | 10 kts | 100° |
| 2026-05-07 10:07 | 6.16997 | -75.42561 | 7017 ft | 10 kts | 149° |
| 2026-05-07 10:07 | 6.16932 | -75.42524 | 7019 ft | 12 kts | 150° |
| 2026-05-07 10:07 | 6.16860 | -75.42485 | 7015 ft | 11 kts | 165° |
| 2026-05-07 10:07 | 6.16776 | -75.42485 | 7012 ft | 14 kts | 180° |
| 2026-05-07 10:08 | 6.16678 | -75.42484 | 7008 ft | 15 kts | 180° |
| 2026-05-07 10:08 | 6.16591 | -75.42484 | 7003 ft | 11 kts | 179° |
| 2026-05-07 10:08 | 6.16509 | -75.42484 | 6996 ft | 12 kts | 179° |
| 2026-05-07 10:08 | 6.16410 | -75.42483 | 6988 ft | 16 kts | 180° |
| 2026-05-07 10:09 | 6.16323 | -75.42483 | 6982 ft | 13 kts | 179° |
| 2026-05-07 10:09 | 6.16222 | -75.42482 | 6984 ft | 16 kts | 179° |
| 2026-05-07 10:09 | 6.16130 | -75.42481 | 6985 ft | 12 kts | 179° |
| 2026-05-07 10:09 | 6.16042 | -75.42481 | 6984 ft | 13 kts | 180° |
| 2026-05-07 10:10 | 6.15949 | -75.42480 | 6982 ft | 14 kts | 179° |
| 2026-05-07 10:10 | 6.15854 | -75.42479 | 6981 ft | 14 kts | 180° |
| 2026-05-07 10:10 | 6.15760 | -75.42479 | 6980 ft | 14 kts | 179° |
| 2026-05-07 10:10 | 6.15665 | -75.42479 | 6977 ft | 14 kts | 179° |
| 2026-05-07 10:11 | 6.15559 | -75.42477 | 6979 ft | 16 kts | 181° |
| 2026-05-07 10:11 | 6.15445 | -75.42477 | 6979 ft | 15 kts | 179° |
| 2026-05-07 10:11 | 6.15341 | -75.42476 | 6977 ft | 16 kts | 179° |
| 2026-05-07 10:11 | 6.15235 | -75.42475 | 6978 ft | 13 kts | 180° |
| 2026-05-07 10:12 | 6.15140 | -75.42474 | 6977 ft | 15 kts | 179° |
| 2026-05-07 10:12 | 6.15038 | -75.42473 | 6977 ft | 13 kts | 180° |
| 2026-05-07 10:12 | 6.14947 | -75.42473 | 6977 ft | 10 kts | 179° |
| 2026-05-07 10:12 | 6.14881 | -75.42492 | 6977 ft | 10 kts | 185° |
| 2026-05-07 10:13 | 6.14829 | -75.42446 | 6976 ft | 12 kts | 94° |
| 2026-05-07 10:13 | 6.14831 | -75.42415 | 6977 ft | 0 kts | 88° |
| 2026-05-07 10:13 | 6.14831 | -75.42413 | 6977 ft | 0 kts | 88° |
| 2026-05-07 10:14 | 6.14833 | -75.42401 | 6977 ft | 4 kts | 78° |
| 2026-05-07 10:14 | 6.14859 | -75.42373 | 6975 ft | 9 kts | 29° |
| 2026-05-07 10:14 | 6.14893 | -75.42355 | 6976 ft | 8 kts | 27° |
| 2026-05-07 10:14 | 6.14946 | -75.42320 | 6976 ft | 5 kts | 55° |
| 2026-05-07 10:15 | 6.14975 | -75.42303 | 6977 ft | 6 kts | 357° |
| 2026-05-07 10:15 | 6.14985 | -75.42304 | 6977 ft | 0 kts | 358° |
| 2026-05-07 10:16 | 6.15035 | -75.42304 | 6978 ft | 29 kts | 359° |
| 2026-05-07 10:16 | 6.15511 | -75.42307 | 6979 ft | 102 kts | 359° |
| 2026-05-07 10:16 | 6.16419 | -75.42313 | 6991 ft | 158 kts | 360° |
| 2026-05-07 10:16 | 6.17674 | -75.42325 | 7076 ft | 198 kts | 0° |
| 2026-05-07 10:17 | 6.19048 | -75.42339 | 7875 ft | 197 kts | 1° |
| 2026-05-07 10:17 | 6.20413 | -75.42339 | 8582 ft | 195 kts | 5° |
| 2026-05-07 10:17 | 6.21674 | -75.41969 | 9105 ft | 188 kts | 43° |
| 2026-05-07 10:17 | 6.22386 | -75.40926 | 9619 ft | 181 kts | 81° |
| 2026-05-07 10:18 | 6.22394 | -75.39704 | 10157 ft | 177 kts | 96° |
| 2026-05-07 10:18 | 6.22508 | -75.38412 | 10372 ft | 200 kts | 73° |
| 2026-05-07 10:18 | 6.23103 | -75.37051 | 10511 ft | 224 kts | 68° |
| 2026-05-07 10:18 | 6.23813 | -75.35559 | 10641 ft | 249 kts | 67° |
| 2026-05-07 10:19 | 6.24608 | -75.33918 | 10874 ft | 273 kts | 66° |
| 2026-05-07 10:19 | 6.25476 | -75.32140 | 11246 ft | 290 kts | 66° |
| 2026-05-07 10:19 | 6.26378 | -75.30300 | 11902 ft | 297 kts | 65° |
| 2026-05-07 10:19 | 6.27286 | -75.28454 | 12663 ft | 299 kts | 65° |
| 2026-05-07 10:20 | 6.28209 | -75.26577 | 13412 ft | 301 kts | 65° |
| 2026-05-07 10:20 | 6.29419 | -75.24855 | 14096 ft | 308 kts | 42° |
| 2026-05-07 10:20 | 6.31351 | -75.23879 | 14702 ft | 318 kts | 16° |
| 2026-05-07 10:20 | 6.33562 | -75.23623 | 15223 ft | 323 kts | 3° |
| 2026-05-07 10:21 | 6.35824 | -75.23727 | 15891 ft | 327 kts | 358° |
| 2026-05-07 10:21 | 6.38099 | -75.23948 | 16566 ft | 330 kts | 357° |
| 2026-05-07 10:21 | 6.40408 | -75.24157 | 16975 ft | 341 kts | 358° |
| 2026-05-07 10:21 | 6.42846 | -75.24303 | 17103 ft | 360 kts | 360° |
| 2026-05-07 10:22 | 6.45415 | -75.24383 | 17282 ft | 377 kts | 1° |
| 2026-05-07 10:22 | 6.48057 | -75.24331 | 17700 ft | 382 kts | 5° |
| 2026-05-07 10:22 | 6.50720 | -75.24134 | 18254 ft | 385 kts | 7° |
| 2026-05-07 10:22 | 6.53396 | -75.23856 | 18762 ft | 387 kts | 8° |
| 2026-05-07 10:23 | 6.56087 | -75.23552 | 19271 ft | 390 kts | 8° |
| 2026-05-07 10:23 | 6.58797 | -75.23258 | 19770 ft | 392 kts | 8° |
| 2026-05-07 10:23 | 6.61491 | -75.22990 | 20255 ft | 395 kts | 7° |
| 2026-05-07 10:23 | 6.64238 | -75.22740 | 20740 ft | 397 kts | 7° |
| 2026-05-07 10:24 | 6.67006 | -75.22503 | 21232 ft | 400 kts | 6° |
| 2026-05-07 10:24 | 6.69787 | -75.22271 | 21721 ft | 401 kts | 6° |
| 2026-05-07 10:24 | 6.72580 | -75.22040 | 22198 ft | 404 kts | 6° |
| 2026-05-07 10:24 | 6.75401 | -75.21804 | 22650 ft | 406 kts | 6° |
| 2026-05-07 10:25 | 6.78228 | -75.21563 | 23099 ft | 409 kts | 7° |
| 2026-05-07 10:25 | 6.81073 | -75.21316 | 23547 ft | 411 kts | 7° |
| 2026-05-07 10:25 | 6.83901 | -75.21071 | 23912 ft | 414 kts | 6° |
| 2026-05-07 10:25 | 6.86792 | -75.20819 | 24269 ft | 417 kts | 6° |
| 2026-05-07 10:26 | 6.89695 | -75.20567 | 24620 ft | 419 kts | 6° |
| 2026-05-07 10:26 | 6.92612 | -75.20317 | 24946 ft | 422 kts | 6° |
| 2026-05-07 10:26 | 6.95547 | -75.20066 | 25292 ft | 425 kts | 6° |
| 2026-05-07 10:26 | 6.98500 | -75.19810 | 25630 ft | 427 kts | 6° |
| 2026-05-07 10:27 | 7.01475 | -75.19551 | 25947 ft | 430 kts | 6° |
| 2026-05-07 10:27 | 7.04463 | -75.19234 | 26272 ft | 431 kts | 8° |
| 2026-05-07 10:27 | 7.07409 | -75.18827 | 26551 ft | 434 kts | 9° |
| 2026-05-07 10:27 | 7.10416 | -75.18350 | 26866 ft | 437 kts | 10° |
| 2026-05-07 10:28 | 7.13427 | -75.17849 | 27193 ft | 439 kts | 10° |
| 2026-05-07 10:28 | 7.16446 | -75.17348 | 27526 ft | 442 kts | 10° |
| 2026-05-07 10:28 | 7.19506 | -75.16856 | 27853 ft | 444 kts | 9° |
| 2026-05-07 10:28 | 7.22531 | -75.16387 | 28192 ft | 447 kts | 9° |
| 2026-05-07 10:29 | 7.25613 | -75.15919 | 28498 ft | 450 kts | 9° |
| 2026-05-07 10:29 | 7.28716 | -75.15452 | 28831 ft | 452 kts | 8° |
| 2026-05-07 10:29 | 7.31841 | -75.14986 | 29110 ft | 455 kts | 8° |
| 2026-05-07 10:30 | 7.38156 | -75.14040 | 29625 ft | 461 kts | 8° |
| 2026-05-07 10:30 | 7.41339 | -75.13562 | 29898 ft | 463 kts | 8° |
| 2026-05-07 10:30 | 7.44547 | -75.13075 | 30141 ft | 466 kts | 8° |
| 2026-05-07 10:30 | 7.47719 | -75.12592 | 30377 ft | 468 kts | 8° |
| 2026-05-07 10:31 | 7.50952 | -75.12099 | 30592 ft | 470 kts | 8° |
| 2026-05-07 10:31 | 7.54197 | -75.11602 | 30832 ft | 472 kts | 8° |
| 2026-05-07 10:31 | 7.57451 | -75.11106 | 31108 ft | 473 kts | 8° |
| 2026-05-07 10:31 | 7.60702 | -75.10611 | 31456 ft | 472 kts | 8° |
| 2026-05-07 10:32 | 7.63941 | -75.10122 | 31787 ft | 471 kts | 8° |
| 2026-05-07 10:32 | 7.67182 | -75.09636 | 32128 ft | 470 kts | 8° |
| 2026-05-07 10:32 | 7.70417 | -75.09147 | 32465 ft | 469 kts | 8° |
| 2026-05-07 10:32 | 7.73659 | -75.08655 | 32796 ft | 470 kts | 8° |
| 2026-05-07 10:33 | 7.76890 | -75.08160 | 33146 ft | 469 kts | 8° |
| 2026-05-07 10:33 | 7.80118 | -75.07663 | 33493 ft | 469 kts | 8° |
| 2026-05-07 10:33 | 7.83336 | -75.07164 | 33821 ft | 468 kts | 8° |
| 2026-05-07 10:33 | 7.86523 | -75.06663 | 33903 ft | 466 kts | 8° |
| 2026-05-07 10:34 | 7.92904 | -75.05672 | 33920 ft | 461 kts | 8° |
| 2026-05-07 10:34 | 7.99266 | -75.04706 | 33930 ft | 458 kts | 7° |
| 2026-05-07 10:35 | 8.05567 | -75.03743 | 33920 ft | 461 kts | 8° |
| 2026-05-07 10:35 | 8.11911 | -75.02778 | 33923 ft | 460 kts | 8° |
| 2026-05-07 10:36 | 8.18247 | -75.01784 | 33920 ft | 460 kts | 8° |
| 2026-05-07 10:36 | 8.24557 | -75.00800 | 33894 ft | 459 kts | 8° |
| 2026-05-07 10:37 | 8.30833 | -74.99834 | 33894 ft | 459 kts | 8° |
| 2026-05-07 10:37 | 8.37189 | -74.98846 | 33904 ft | 459 kts | 8° |
| 2026-05-07 10:38 | 8.43470 | -74.97874 | 33909 ft | 459 kts | 7° |
| 2026-05-07 10:38 | 8.49791 | -74.96915 | 33916 ft | 459 kts | 7° |
| 2026-05-07 10:39 | 8.56107 | -74.95947 | 33921 ft | 458 kts | 7° |
| 2026-05-07 10:39 | 8.62422 | -74.94962 | 33927 ft | 459 kts | 8° |
| 2026-05-07 10:40 | 8.68706 | -74.93987 | 33923 ft | 458 kts | 7° |
| 2026-05-07 10:40 | 8.75007 | -74.93012 | 33915 ft | 457 kts | 7° |
| 2026-05-07 10:41 | 8.81249 | -74.92049 | 33927 ft | 456 kts | 7° |
| 2026-05-07 10:41 | 8.87522 | -74.91080 | 33930 ft | 454 kts | 7° |
| 2026-05-07 10:42 | 8.93769 | -74.90117 | 33928 ft | 453 kts | 7° |
| 2026-05-07 10:42 | 9.00010 | -74.89143 | 33928 ft | 453 kts | 7° |
| 2026-05-07 10:43 | 9.06211 | -74.88175 | 33727 ft | 453 kts | 7° |
| 2026-05-07 10:43 | 9.09335 | -74.87690 | 33471 ft | 453 kts | 8° |
| 2026-05-07 10:43 | 9.12452 | -74.87208 | 33216 ft | 453 kts | 7° |
| 2026-05-07 10:44 | 9.15571 | -74.86727 | 32964 ft | 453 kts | 8° |
| 2026-05-07 10:44 | 9.18698 | -74.86245 | 32525 ft | 452 kts | 8° |
| 2026-05-07 10:44 | 9.21770 | -74.85769 | 31900 ft | 451 kts | 8° |
| 2026-05-07 10:44 | 9.24876 | -74.85289 | 31280 ft | 450 kts | 8° |
| 2026-05-07 10:45 | 9.27988 | -74.84825 | 30656 ft | 450 kts | 6° |
| 2026-05-07 10:45 | 9.31128 | -74.84707 | 30029 ft | 450 kts | 360° |
| 2026-05-07 10:45 | 9.34263 | -74.84736 | 29341 ft | 449 kts | 360° |
| 2026-05-07 10:45 | 9.37339 | -74.84764 | 28739 ft | 447 kts | 0° |
| 2026-05-07 10:46 | 9.40433 | -74.84795 | 28128 ft | 444 kts | 0° |
| 2026-05-07 10:46 | 9.43517 | -74.84828 | 27518 ft | 441 kts | 1° |
| 2026-05-07 10:46 | 9.46582 | -74.84860 | 26917 ft | 438 kts | 0° |
| 2026-05-07 10:46 | 9.49625 | -74.84890 | 26321 ft | 435 kts | 1° |
| 2026-05-07 10:47 | 9.52647 | -74.84918 | 25747 ft | 432 kts | 1° |
| 2026-05-07 10:47 | 9.55644 | -74.84943 | 25173 ft | 429 kts | 1° |
| 2026-05-07 10:47 | 9.58612 | -74.84967 | 24711 ft | 424 kts | 1° |
| 2026-05-07 10:47 | 9.61555 | -74.84993 | 24161 ft | 419 kts | 1° |
| 2026-05-07 10:48 | 9.64456 | -74.85017 | 23613 ft | 416 kts | 2° |
| 2026-05-07 10:48 | 9.67328 | -74.85039 | 23183 ft | 410 kts | 2° |
| 2026-05-07 10:48 | 9.70173 | -74.85062 | 22500 ft | 408 kts | 2° |
| 2026-05-07 10:48 | 9.73009 | -74.85084 | 21973 ft | 404 kts | 2° |
| 2026-05-07 10:49 | 9.75774 | -74.85108 | 21476 ft | 400 kts | 2° |
| 2026-05-07 10:49 | 9.78538 | -74.85135 | 20961 ft | 396 kts | 2° |
| 2026-05-07 10:49 | 9.81282 | -74.85163 | 20450 ft | 392 kts | 2° |
| 2026-05-07 10:49 | 9.84003 | -74.85190 | 19938 ft | 389 kts | 2° |
| 2026-05-07 10:50 | 9.86712 | -74.85214 | 19417 ft | 387 kts | 2° |
| 2026-05-07 10:50 | 9.89412 | -74.85234 | 18890 ft | 386 kts | 2° |
| 2026-05-07 10:50 | 9.92095 | -74.85254 | 18405 ft | 384 kts | 1° |
| 2026-05-07 10:50 | 9.94758 | -74.85277 | 17931 ft | 380 kts | 1° |
| 2026-05-07 10:51 | 9.97368 | -74.85303 | 17415 ft | 377 kts | 2° |
| 2026-05-07 10:51 | 9.99985 | -74.85329 | 16898 ft | 374 kts | 2° |
| 2026-05-07 10:51 | 10.02584 | -74.85355 | 16423 ft | 372 kts | 2° |
| 2026-05-07 10:51 | 10.05168 | -74.85378 | 15926 ft | 371 kts | 2° |
| 2026-05-07 10:52 | 10.07742 | -74.85398 | 15440 ft | 369 kts | 2° |
| 2026-05-07 10:52 | 10.10308 | -74.85415 | 14954 ft | 368 kts | 3° |
| 2026-05-07 10:52 | 10.12842 | -74.85436 | 14470 ft | 368 kts | 3° |
| 2026-05-07 10:52 | 10.15397 | -74.85460 | 13981 ft | 367 kts | 3° |
| 2026-05-07 10:53 | 10.17953 | -74.85485 | 13453 ft | 367 kts | 3° |
| 2026-05-07 10:53 | 10.20499 | -74.85506 | 12938 ft | 365 kts | 2° |
| 2026-05-07 10:53 | 10.23026 | -74.85528 | 12440 ft | 362 kts | 2° |
| 2026-05-07 10:53 | 10.25541 | -74.85548 | 11936 ft | 360 kts | 2° |
| 2026-05-07 10:54 | 10.28038 | -74.85569 | 11430 ft | 358 kts | 2° |
| 2026-05-07 10:54 | 10.30523 | -74.85590 | 10922 ft | 356 kts | 1° |
| 2026-05-07 10:54 | 10.32995 | -74.85611 | 10421 ft | 354 kts | 1° |
| 2026-05-07 10:54 | 10.35421 | -74.85631 | 10246 ft | 342 kts | 1° |
| 2026-05-07 10:55 | 10.37753 | -74.85652 | 10127 ft | 329 kts | 1° |
| 2026-05-07 10:55 | 10.39970 | -74.85675 | 10017 ft | 316 kts | 1° |
| 2026-05-07 10:55 | 10.42132 | -74.85698 | 9860 ft | 306 kts | 1° |
| 2026-05-07 10:55 | 10.44248 | -74.85718 | 9371 ft | 301 kts | 1° |
| 2026-05-07 10:56 | 10.46336 | -74.85734 | 8776 ft | 297 kts | 1° |
| 2026-05-07 10:56 | 10.48373 | -74.85752 | 8353 ft | 287 kts | 1° |
| 2026-05-07 10:56 | 10.50329 | -74.85769 | 7977 ft | 276 kts | 1° |
| 2026-05-07 10:56 | 10.52218 | -74.85789 | 7611 ft | 267 kts | 1° |
| 2026-05-07 10:57 | 10.54061 | -74.85806 | 7252 ft | 263 kts | 1° |
| 2026-05-07 10:57 | 10.55861 | -74.85820 | 6902 ft | 259 kts | 1° |
| 2026-05-07 10:57 | 10.57653 | -74.85834 | 6549 ft | 255 kts | 1° |
| 2026-05-07 10:57 | 10.59410 | -74.86027 | 6199 ft | 253 kts | 346° |
| 2026-05-07 10:58 | 10.61023 | -74.86736 | 5844 ft | 252 kts | 332° |
| 2026-05-07 10:58 | 10.62544 | -74.87606 | 5496 ft | 249 kts | 332° |
| 2026-05-07 10:58 | 10.64044 | -74.88463 | 5154 ft | 243 kts | 332° |
| 2026-05-07 10:58 | 10.65508 | -74.89292 | 4831 ft | 238 kts | 333° |
| 2026-05-07 10:59 | 10.66935 | -74.90099 | 4509 ft | 237 kts | 331° |
| 2026-05-07 10:59 | 10.68401 | -74.90876 | 4180 ft | 236 kts | 342° |
| 2026-05-07 10:59 | 10.70014 | -74.91040 | 3849 ft | 233 kts | 2° |
| 2026-05-07 10:59 | 10.71634 | -74.91133 | 3539 ft | 229 kts | 355° |
| 2026-05-07 11:00 | 10.73176 | -74.91042 | 3252 ft | 220 kts | 15° |
| 2026-05-07 11:00 | 10.74552 | -74.90410 | 3039 ft | 213 kts | 36° |
| 2026-05-07 11:00 | 10.75704 | -74.89454 | 2989 ft | 211 kts | 40° |
| 2026-05-07 11:00 | 10.76800 | -74.88515 | 2816 ft | 202 kts | 40° |
| 2026-05-07 11:01 | 10.77844 | -74.87617 | 2575 ft | 196 kts | 40° |
| 2026-05-07 11:01 | 10.78837 | -74.86764 | 2349 ft | 177 kts | 39° |
| 2026-05-07 11:01 | 10.79753 | -74.85979 | 2113 ft | 168 kts | 40° |
| 2026-05-07 11:01 | 10.80612 | -74.85241 | 1914 ft | 158 kts | 40° |
| 2026-05-07 11:02 | 10.81436 | -74.84534 | 1717 ft | 154 kts | 43° |
| 2026-05-07 11:02 | 10.82250 | -74.83840 | 1527 ft | 151 kts | 39° |
| 2026-05-07 11:02 | 10.83068 | -74.83146 | 1328 ft | 155 kts | 40° |
| 2026-05-07 11:02 | 10.83605 | -74.82683 | 1213 ft | 149 kts | 40° |
| 2026-05-07 11:03 | 10.84675 | -74.81769 | 930 ft | 152 kts | 40° |
| 2026-05-07 11:03 | 10.85480 | -74.81082 | 742 ft | 151 kts | 40° |
| 2026-05-07 11:03 | 10.86019 | -74.80616 | 615 ft | 149 kts | 40° |
| 2026-05-07 11:03 | 10.86795 | -74.79946 | 417 ft | 148 kts | 39° |
| 2026-05-07 11:04 | 10.87576 | -74.79276 | 233 ft | 146 kts | 39° |
| 2026-05-07 11:04 | 10.88578 | -74.78419 | 102 ft | 127 kts | 40° |
| 2026-05-07 11:04 | 10.88973 | -74.78080 | 96 ft | 93 kts | 40° |
| 2026-05-07 11:04 | 10.89326 | -74.77776 | 89 ft | 33 kts | 40° |
| 2026-05-07 11:05 | 10.89376 | -74.77658 | 84 ft | 15 kts | 88° |
| 2026-05-07 11:05 | 10.89376 | -74.77593 | 82 ft | 8 kts | 102° |
| 2026-05-07 11:05 | 10.89367 | -74.77574 | 82 ft | 2 kts | 123° |
| 2026-05-07 11:05 | 10.89301 | -74.77540 | 84 ft | 14 kts | 159° |
| 2026-05-07 11:06 | 10.89201 | -74.77505 | 89 ft | 16 kts | 161° |
| 2026-05-07 11:06 | 10.89121 | -74.77500 | 92 ft | 10 kts | 205° |
| 2026-05-07 11:06 | 10.89067 | -74.77543 | 97 ft | 10 kts | 221° |
| 2026-05-07 11:06 | 10.89013 | -74.77591 | 98 ft | 11 kts | 220° |
| 2026-05-07 11:07 | 10.88946 | -74.77647 | 97 ft | 12 kts | 219° |
| 2026-05-07 11:07 | 10.88873 | -74.77710 | 97 ft | 14 kts | 220° |
| 2026-05-07 11:07 | 10.88793 | -74.77779 | 96 ft | 12 kts | 220° |
| 2026-05-07 11:07 | 10.88738 | -74.77817 | 95 ft | 8 kts | 185° |
| 2026-05-07 11:08 | 10.88684 | -74.77793 | 96 ft | 10 kts | 198° |
| 2026-05-07 11:08 | 10.88636 | -74.77835 | 96 ft | 6 kts | 220° |
| 2026-05-07 11:08 | 10.88619 | -74.77848 | 96 ft | 2 kts | 209° |
| 2026-05-07 11:08 | 10.88607 | -74.77845 | 96 ft | 6 kts | 161° |
| 2026-05-07 11:09 | 10.88585 | -74.77817 | 98 ft | 2 kts | 132° |
| 2026-05-07 11:09 | 10.88579 | -74.77810 | 96 ft | 0 kts | 130° |